Time;durP1;ratioP1;P1;durP2;ratioP2;P2;SDS_P1;SDS_P2;PMS_P1;PMS_P2;Temp;Humidity;BMP_temperature;BMP_pressure;BME280_temperature;BME280_humidity;BME280_pressure;Samples;Min_cycle;Max_cycle;Signal;HPM_P1;HPM_P2
2022/08/06 00:02:28;;;;;;;;;;;23.30;77.70;;;;;;4967268;28;19914;-84
2022/08/06 00:04:54;;;;;;;;;;;23.30;77.90;;;;;;4951179;28;20021;-85
2022/08/06 00:07:19;;;;;;;;;;;23.20;78.10;;;;;;4966774;28;20009;-84
2022/08/06 00:09:45;;;;;;;;;;;23.10;78.30;;;;;;4947944;28;20553;-84
2022/08/06 00:12:11;;;;;;;;;;;23.10;78.10;;;;;;4970672;28;19914;-85
2022/08/06 00:14:36;;;;;;;;;;;23.10;78.50;;;;;;4967543;28;19996;-84
2022/08/06 00:17:02;;;;;;;;;;;23.10;78.40;;;;;;4971011;28;19914;-84
2022/08/06 00:19:27;;;;;;;;;;;23.10;78.50;;;;;;4964817;28;19925;-85
2022/08/06 00:21:53;;;;;;;;;;;23.00;78.80;;;;;;4973191;28;19914;-85
2022/08/06 00:24:19;;;;;;;;;;;23.10;78.70;;;;;;4962046;28;19914;-84
2022/08/06 00:26:44;;;;;;;;;;;23.00;79.10;;;;;;4946088;28;19918;-84
2022/08/06 00:29:10;;;;;;;;;;;23.00;78.90;;;;;;4969481;28;19916;-83
2022/08/06 00:31:36;;;;;;;;;;;23.10;78.70;;;;;;4970151;28;19914;-84
2022/08/06 00:34:03;;;;;;;;;;;23.00;79.10;;;;;;4961207;28;19984;-84
2022/08/06 00:36:32;;;;;;;;;;;22.90;79.40;;;;;;4966250;28;19969;-84
2022/08/06 00:38:58;;;;;;;;;;;22.90;79.20;;;;;;4964368;28;19968;-84
2022/08/06 00:41:24;;;;;;;;;;;22.90;79.50;;;;;;4968921;28;19914;-84
2022/08/06 00:43:50;;;;;;;;;;;22.90;79.10;;;;;;4953172;28;19910;-84
2022/08/06 00:46:16;;;;;;;;;;;23.00;79.10;;;;;;4960554;28;19985;-84
2022/08/06 00:48:41;;;;;;;;;;;23.00;78.90;;;;;;4968755;28;19992;-84
2022/08/06 00:51:07;;;;;;;;;;;22.90;79.20;;;;;;4966331;28;19914;-84
2022/08/06 00:53:32;;;;;;;;;;;22.90;79.60;;;;;;4970046;28;19921;-84
2022/08/06 00:55:58;;;;;;;;;;;22.90;79.60;;;;;;4964127;28;20617;-84
2022/08/06 00:58:23;;;;;;;;;;;22.80;79.70;;;;;;4960347;28;20662;-85
2022/08/06 01:00:49;;;;;;;;;;;22.80;79.70;;;;;;4963077;28;20362;-84
2022/08/06 01:03:16;;;;;;;;;;;22.70;79.80;;;;;;4963895;28;19918;-85
2022/08/06 01:05:43;;;;;;;;;;;22.70;79.80;;;;;;4958281;28;19918;-85
2022/08/06 01:08:09;;;;;;;;;;;22.80;79.90;;;;;;4958320;28;20322;-84
2022/08/06 01:10:35;;;;;;;;;;;22.80;79.60;;;;;;4960365;28;20375;-85
2022/08/06 01:13:00;;;;;;;;;;;22.80;79.60;;;;;;4943270;28;20017;-85
2022/08/06 01:15:26;;;;;;;;;;;22.70;79.90;;;;;;4959488;28;19914;-85
2022/08/06 01:17:56;;;;;;;;;;;22.80;79.50;;;;;;4962663;28;19914;-85
2022/08/06 01:20:37;;;;;;;;;;;22.80;79.40;;;;;;4945609;28;19964;-85
2022/08/06 01:23:21;;;;;;;;;;;22.80;79.30;;;;;;4961173;28;19976;-83
2022/08/06 01:25:49;;;;;;;;;;;22.80;79.60;;;;;;4961565;28;19913;-84
2022/08/06 01:28:21;;;;;;;;;;;22.70;79.80;;;;;;4948393;28;20585;-84
2022/08/06 01:30:52;;;;;;;;;;;22.70;79.60;;;;;;4963987;28;19914;-85
2022/08/06 01:33:26;;;;;;;;;;;22.70;79.80;;;;;;4962268;28;19926;-84
2022/08/06 01:35:53;;;;;;;;;;;22.70;79.90;;;;;;4960443;28;19914;-84
2022/08/06 01:38:25;;;;;;;;;;;22.70;80.00;;;;;;4956722;28;20010;-84
2022/08/06 01:40:52;;;;;;;;;;;22.70;80.00;;;;;;4962834;28;19949;-85
2022/08/06 01:43:18;;;;;;;;;;;22.80;79.40;;;;;;4956733;28;19918;-84
2022/08/06 01:45:44;;;;;;;;;;;22.70;79.80;;;;;;4962204;28;19918;-84
2022/08/06 01:48:13;;;;;;;;;;;22.80;79.40;;;;;;4957815;28;19941;-85
2022/08/06 01:50:41;;;;;;;;;;;22.80;79.30;;;;;;4965018;28;19922;-84
2022/08/06 01:53:11;;;;;;;;;;;22.80;79.70;;;;;;4955482;28;19922;-84
2022/08/06 01:55:39;;;;;;;;;;;22.80;79.40;;;;;;4961867;28;19921;-84
2022/08/06 01:58:05;;;;;;;;;;;22.70;80.00;;;;;;4962447;28;19920;-84
2022/08/06 02:00:31;;;;;;;;;;;22.80;79.80;;;;;;4948998;28;19914;-85
2022/08/06 02:03:01;;;;;;;;;;;22.80;79.70;;;;;;4962523;28;19965;-85
2022/08/06 02:05:27;;;;;;;;;;;22.80;79.70;;;;;;4948946;28;19914;-85
2022/08/06 02:07:54;;;;;;;;;;;22.70;79.50;;;;;;4947117;28;19914;-84
2022/08/06 02:10:22;;;;;;;;;;;22.70;79.70;;;;;;4963647;28;19917;-84
2022/08/06 02:12:48;;;;;;;;;;;22.60;80.00;;;;;;4958645;28;19932;-84
2022/08/06 02:15:19;;;;;;;;;;;22.60;79.80;;;;;;4966118;28;20394;-85
2022/08/06 02:17:47;;;;;;;;;;;22.60;79.80;;;;;;4970428;28;20038;-84
2022/08/06 02:20:15;;;;;;;;;;;22.60;80.10;;;;;;4966377;28;20610;-84
2022/08/06 02:22:41;;;;;;;;;;;22.50;80.10;;;;;;4966982;28;19942;-84
2022/08/06 02:25:11;;;;;;;;;;;22.50;80.40;;;;;;4968832;28;19950;-85
2022/08/06 02:27:40;;;;;;;;;;;22.40;80.70;;;;;;4967123;28;19921;-85
2022/08/06 02:30:06;;;;;;;;;;;22.30;81.00;;;;;;4967371;28;20009;-85
2022/08/06 02:32:32;;;;;;;;;;;22.30;81.10;;;;;;4966201;28;20029;-84
2022/08/06 02:34:58;;;;;;;;;;;22.30;81.20;;;;;;4971798;28;20127;-84
2022/08/06 02:37:30;;;;;;;;;;;22.20;81.50;;;;;;4968178;28;19921;-85
2022/08/06 02:40:08;;;;;;;;;;;22.20;81.50;;;;;;4965456;28;19910;-84
2022/08/06 02:42:44;;;;;;;;;;;22.10;81.90;;;;;;4963110;28;19948;-84
2022/08/06 02:45:30;;;;;;;;;;;22.10;82.10;;;;;;4966524;28;19941;-84
2022/08/06 02:48:18;;;;;;;;;;;22.00;82.10;;;;;;4962493;28;19918;-84
2022/08/06 02:50:46;;;;;;;;;;;22.00;82.40;;;;;;4965732;28;19918;-84
2022/08/06 02:53:16;;;;;;;;;;;22.10;82.20;;;;;;4968005;28;20379;-85
2022/08/06 02:55:45;;;;;;;;;;;22.10;82.00;;;;;;4964985;28;19960;-85
2022/08/06 02:58:12;;;;;;;;;;;22.10;82.20;;;;;;4965539;28;19921;-84
2022/08/06 03:00:39;;;;;;;;;;;22.10;82.50;;;;;;4969112;28;19922;-85
2022/08/06 03:03:07;;;;;;;;;;;22.10;82.30;;;;;;4964670;28;19914;-84
2022/08/06 03:05:33;;;;;;;;;;;22.10;82.50;;;;;;4965570;28;19914;-85
2022/08/06 03:08:00;;;;;;;;;;;22.00;82.50;;;;;;4965992;28;19961;-86
2022/08/06 03:10:26;;;;;;;;;;;22.00;82.70;;;;;;4965392;28;20244;-84
2022/08/06 03:12:54;;;;;;;;;;;22.00;82.60;;;;;;4965381;28;19922;-86
2022/08/06 03:15:19;;;;;;;;;;;22.00;82.80;;;;;;4966714;28;19914;-84
2022/08/06 03:17:45;;;;;;;;;;;22.00;82.80;;;;;;4966319;28;19985;-83
2022/08/06 03:20:12;;;;;;;;;;;22.10;82.80;;;;;;4964910;28;19918;-84
2022/08/06 03:22:38;;;;;;;;;;;22.00;83.30;;;;;;4965941;28;19941;-84
2022/08/06 03:25:05;;;;;;;;;;;22.00;83.40;;;;;;4966114;28;20383;-83
2022/08/06 03:27:31;;;;;;;;;;;22.00;83.10;;;;;;4970494;28;19941;-84
2022/08/06 03:29:58;;;;;;;;;;;22.10;82.90;;;;;;4951699;28;19914;-84
2022/08/06 03:32:23;;;;;;;;;;;22.10;82.80;;;;;;4964916;28;19922;-84
2022/08/06 03:34:49;;;;;;;;;;;22.00;83.10;;;;;;4966957;28;21883;-84
2022/08/06 03:37:16;;;;;;;;;;;22.10;83.10;;;;;;4961528;28;19914;-84
2022/08/06 03:39:42;;;;;;;;;;;22.10;83.10;;;;;;4965038;28;20017;-84
2022/08/06 03:42:08;;;;;;;;;;;22.10;83.30;;;;;;4968598;28;20033;-84
2022/08/06 03:44:34;;;;;;;;;;;22.10;83.40;;;;;;4957598;28;19920;-85
2022/08/06 03:47:18;;;;;;;;;;;22.10;83.00;;;;;;4964134;28;19969;-85
2022/08/06 03:49:55;;;;;;;;;;;22.10;83.10;;;;;;4963229;28;19913;-85
2022/08/06 03:52:24;;;;;;;;;;;22.00;83.20;;;;;;4963737;28;19914;-83
2022/08/06 03:54:51;;;;;;;;;;;22.00;83.50;;;;;;4950779;28;20017;-83
2022/08/06 03:57:22;;;;;;;;;;;22.00;83.20;;;;;;4965575;28;19917;-84
2022/08/06 03:59:50;;;;;;;;;;;22.00;83.20;;;;;;4965445;28;20712;-84
2022/08/06 04:02:16;;;;;;;;;;;22.00;83.40;;;;;;4964730;28;19917;-84
2022/08/06 04:04:42;;;;;;;;;;;22.00;83.50;;;;;;4968340;28;19996;-83
2022/08/06 04:07:08;;;;;;;;;;;21.90;83.70;;;;;;4964239;28;20002;-84
2022/08/06 04:09:34;;;;;;;;;;;21.90;83.80;;;;;;4957000;28;20420;-84
2022/08/06 04:12:00;;;;;;;;;;;21.90;84.20;;;;;;4963221;28;19918;-85
2022/08/06 04:14:25;;;;;;;;;;;21.90;84.40;;;;;;4967953;28;19922;-85
2022/08/06 04:16:52;;;;;;;;;;;21.90;84.20;;;;;;4964961;28;19921;-85
2022/08/06 04:19:18;;;;;;;;;;;21.90;84.20;;;;;;4964831;28;19920;-84
2022/08/06 04:21:45;;;;;;;;;;;21.90;84.30;;;;;;4961822;28;20462;-84
2022/08/06 04:24:10;;;;;;;;;;;21.90;84.50;;;;;;4965814;28;19914;-85
2022/08/06 04:26:37;;;;;;;;;;;21.90;84.30;;;;;;4964782;28;19975;-85
2022/08/06 04:29:05;;;;;;;;;;;21.90;84.30;;;;;;4961637;28;19920;-84
2022/08/06 04:31:31;;;;;;;;;;;21.90;84.70;;;;;;4963968;28;19922;-85
2022/08/06 04:33:58;;;;;;;;;;;21.80;84.90;;;;;;4961188;28;19922;-85
2022/08/06 04:36:24;;;;;;;;;;;21.80;85.30;;;;;;4971212;28;19983;-85
2022/08/06 04:38:50;;;;;;;;;;;21.80;85.40;;;;;;4961236;28;19954;-84
2022/08/06 04:41:15;;;;;;;;;;;21.70;85.50;;;;;;4963193;28;19914;-85
2022/08/06 04:43:41;;;;;;;;;;;21.70;85.60;;;;;;4965643;28;19921;-84
2022/08/06 04:46:08;;;;;;;;;;;21.70;85.50;;;;;;4963475;28;20402;-84
2022/08/06 04:48:34;;;;;;;;;;;21.70;85.30;;;;;;4964025;28;20040;-84
2022/08/06 04:51:01;;;;;;;;;;;21.60;85.50;;;;;;4963045;28;19913;-84
2022/08/06 04:53:27;;;;;;;;;;;21.50;85.90;;;;;;4955921;28;19922;-84
2022/08/06 04:55:52;;;;;;;;;;;21.60;85.80;;;;;;4963295;28;19922;-84
2022/08/06 04:58:18;;;;;;;;;;;21.50;86.20;;;;;;4947333;28;20391;-83
2022/08/06 05:00:44;;;;;;;;;;;21.50;86.60;;;;;;4963667;28;20656;-84
2022/08/06 05:03:10;;;;;;;;;;;21.50;86.50;;;;;;4960472;28;19968;-85
2022/08/06 05:05:42;;;;;;;;;;;21.60;86.20;;;;;;4962185;28;19917;-84
2022/08/06 05:08:09;;;;;;;;;;;21.60;86.10;;;;;;4963384;28;20801;-84
2022/08/06 05:10:41;;;;;;;;;;;21.50;86.10;;;;;;4963640;28;20032;-84
2022/08/06 05:13:08;;;;;;;;;;;21.50;86.10;;;;;;4964618;28;19918;-84
2022/08/06 05:15:40;;;;;;;;;;;21.50;86.50;;;;;;4962865;28;20765;-83
2022/08/06 05:18:20;;;;;;;;;;;21.40;86.90;;;;;;4963947;28;20387;-85
2022/08/06 05:20:48;;;;;;;;;;;21.60;86.20;;;;;;4953924;28;20295;-84
2022/08/06 05:23:18;;;;;;;;;;;21.60;86.20;;;;;;4964704;28;19920;-84
2022/08/06 05:25:44;;;;;;;;;;;21.70;86.00;;;;;;4963122;28;19914;-84
2022/08/06 05:28:09;;;;;;;;;;;21.70;86.10;;;;;;4963712;28;20306;-84
2022/08/06 05:30:41;;;;;;;;;;;21.70;85.60;;;;;;4964094;28;20570;-85
2022/08/06 05:33:06;;;;;;;;;;;21.90;85.30;;;;;;4962533;28;20303;-85
2022/08/06 05:35:32;;;;;;;;;;;22.10;84.60;;;;;;4956326;28;19918;-86
2022/08/06 05:37:57;;;;;;;;;;;22.20;84.00;;;;;;4962222;28;19922;-87
2022/08/06 05:40:23;;;;;;;;;;;22.30;83.70;;;;;;4949180;28;19921;-84
2022/08/06 05:42:48;;;;;;;;;;;22.30;83.60;;;;;;4962852;28;19913;-86
2022/08/06 05:45:15;;;;;;;;;;;22.80;82.30;;;;;;4963813;28;20433;-84
2022/08/06 05:47:41;;;;;;;;;;;22.60;82.50;;;;;;4962700;28;19914;-85
2022/08/06 05:50:14;;;;;;;;;;;22.60;82.10;;;;;;4963569;28;19918;-85
2022/08/06 05:52:59;;;;;;;;;;;22.50;82.30;;;;;;4949818;28;19918;-85
2022/08/06 05:55:29;;;;;;;;;;;22.50;82.20;;;;;;4957620;28;19944;-84
2022/08/06 05:57:57;;;;;;;;;;;22.50;82.70;;;;;;4963351;28;19914;-85
2022/08/06 06:00:24;;;;;;;;;;;22.40;82.90;;;;;;4957610;28;19914;-86
2022/08/06 06:02:51;;;;;;;;;;;22.60;82.00;;;;;;4963404;28;19918;-85
2022/08/06 06:05:17;;;;;;;;;;;23.50;80.40;;;;;;4962832;28;19967;-85
2022/08/06 06:07:43;;;;;;;;;;;25.10;75.20;;;;;;4964059;28;20032;-85
2022/08/06 06:10:09;;;;;;;;;;;26.10;73.00;;;;;;4964058;28;20004;-85
2022/08/06 06:12:36;;;;;;;;;;;27.00;70.20;;;;;;4964799;28;20358;-86
2022/08/06 06:15:03;;;;;;;;;;;26.80;70.10;;;;;;4963775;28;19914;-85
2022/08/06 06:17:37;;;;;;;;;;;26.80;70.30;;;;;;4946818;28;19996;-85
2022/08/06 06:20:03;;;;;;;;;;;27.20;68.60;;;;;;4971231;28;19913;-85
2022/08/06 06:22:34;;;;;;;;;;;27.60;67.80;;;;;;4962999;28;20413;-84
2022/08/06 06:25:11;;;;;;;;;;;27.50;67.40;;;;;;4965860;28;19920;-83
2022/08/06 06:27:52;;;;;;;;;;;27.90;66.60;;;;;;4966245;28;19914;-84
2022/08/06 06:30:31;;;;;;;;;;;28.10;65.80;;;;;;4956943;28;19924;-82
2022/08/06 06:33:14;;;;;;;;;;;27.90;66.30;;;;;;4959927;28;19929;-84
2022/08/06 06:36:02;;;;;;;;;;;28.20;65.80;;;;;;4951168;28;20536;-84
2022/08/06 06:38:28;;;;;;;;;;;28.30;65.20;;;;;;4955331;28;19921;-83
2022/08/06 06:40:58;;;;;;;;;;;28.50;64.60;;;;;;4950056;28;19914;-84
2022/08/06 06:43:24;;;;;;;;;;;28.30;65.00;;;;;;4958396;28;19914;-84
2022/08/06 06:45:49;;;;;;;;;;;29.00;63.90;;;;;;4948078;28;19937;-84
2022/08/06 06:48:36;;;;;;;;;;;28.70;64.30;;;;;;4961138;28;20267;-83
2022/08/06 06:51:06;;;;;;;;;;;29.30;64.10;;;;;;4962049;28;20433;-83
2022/08/06 06:53:34;;;;;;;;;;;29.10;63.00;;;;;;4951409;28;20017;-84
2022/08/06 06:56:01;;;;;;;;;;;29.00;63.70;;;;;;4974085;28;19921;-83
2022/08/06 06:58:36;;;;;;;;;;;29.30;63.00;;;;;;4946605;28;20024;-85
2022/08/06 07:01:04;;;;;;;;;;;29.40;62.70;;;;;;4963856;28;20872;-83
2022/08/06 07:03:33;;;;;;;;;;;29.50;61.90;;;;;;4964945;28;20049;-83
2022/08/06 07:05:59;;;;;;;;;;;30.00;61.40;;;;;;4957895;28;20379;-83
2022/08/06 07:08:26;;;;;;;;;;;30.20;60.50;;;;;;4940357;28;19914;-86
2022/08/06 07:10:52;;;;;;;;;;;30.40;60.00;;;;;;4947727;28;19913;-86
2022/08/06 07:13:19;;;;;;;;;;;31.20;58.90;;;;;;4964990;28;20383;-85
2022/08/06 07:15:45;;;;;;;;;;;30.80;59.60;;;;;;4948668;28;20012;-86
2022/08/06 07:18:11;;;;;;;;;;;30.60;59.50;;;;;;4959776;28;20875;-86
2022/08/06 07:20:36;;;;;;;;;;;30.80;59.60;;;;;;4950214;28;19934;-85
2022/08/06 07:23:06;;;;;;;;;;;31.10;58.30;;;;;;4965663;28;20042;-86
2022/08/06 07:25:37;;;;;;;;;;;31.10;58.10;;;;;;4965121;28;19952;-86
2022/08/06 07:28:04;;;;;;;;;;;31.50;58.40;;;;;;4964668;28;19918;-87
2022/08/06 07:30:30;;;;;;;;;;;31.20;58.30;;;;;;4966479;28;19914;-86
2022/08/06 07:32:55;;;;;;;;;;;31.80;57.80;;;;;;4961273;28;19910;-88
2022/08/06 07:35:21;;;;;;;;;;;32.30;56.40;;;;;;4959675;28;19918;-87
2022/08/06 07:37:49;;;;;;;;;;;32.80;55.60;;;;;;4969481;28;19914;-88
2022/08/06 07:40:18;;;;;;;;;;;32.80;56.40;;;;;;4964264;28;19921;-87
2022/08/06 07:42:45;;;;;;;;;;;32.70;55.80;;;;;;4963429;28;19914;-85
2022/08/06 07:45:12;;;;;;;;;;;32.70;55.70;;;;;;4964241;28;19914;-86
2022/08/06 07:47:39;;;;;;;;;;;32.50;55.50;;;;;;4953256;28;19914;-86
2022/08/06 07:50:05;;;;;;;;;;;33.00;55.10;;;;;;4967385;28;19914;-87
2022/08/06 07:52:31;;;;;;;;;;;33.30;54.40;;;;;;4960158;28;19978;-87
2022/08/06 07:54:57;;;;;;;;;;;33.10;54.70;;;;;;4961667;28;19927;-86
2022/08/06 07:57:23;;;;;;;;;;;33.40;54.00;;;;;;4957157;28;19942;-86
2022/08/06 07:59:49;;;;;;;;;;;33.30;54.00;;;;;;4966745;28;20283;-87
2022/08/06 08:02:15;;;;;;;;;;;33.60;54.00;;;;;;4966842;28;19917;-87
2022/08/06 08:07:26;;;;;;;;;;;34.00;53.60;;;;;;4967140;28;19962;-87
2022/08/06 08:09:51;;;;;;;;;;;34.00;53.40;;;;;;4967082;28;19910;-87
2022/08/06 08:12:18;;;;;;;;;;;34.10;52.80;;;;;;4966601;28;19910;-86
2022/08/06 08:14:44;;;;;;;;;;;34.30;51.80;;;;;;4967065;28;19917;-87
2022/08/06 08:17:10;;;;;;;;;;;34.90;52.10;;;;;;4966788;28;19933;-86
2022/08/06 08:19:36;;;;;;;;;;;35.20;51.90;;;;;;4966759;28;20620;-87
2022/08/06 08:22:13;;;;;;;;;;;36.30;50.20;;;;;;4966071;28;19989;-86
2022/08/06 08:24:39;;;;;;;;;;;36.20;50.20;;;;;;4966656;28;19914;-87
2022/08/06 08:27:08;;;;;;;;;;;34.80;52.00;;;;;;4966338;28;20371;-87
2022/08/06 08:29:34;;;;;;;;;;;35.80;50.60;;;;;;4966758;28;19916;-87
2022/08/06 08:32:00;;;;;;;;;;;36.50;49.00;;;;;;4966883;28;19909;-87
2022/08/06 08:34:26;;;;;;;;;;;36.20;49.30;;;;;;4966848;28;19923;-87
2022/08/06 08:36:51;;;;;;;;;;;37.00;49.10;;;;;;4949101;28;19917;-87
2022/08/06 08:39:18;;;;;;;;;;;37.10;49.40;;;;;;4966457;28;21259;-87
2022/08/06 08:41:49;;;;;;;;;;;37.40;48.20;;;;;;4966167;28;19918;-88
2022/08/06 08:44:19;;;;;;;;;;;37.80;47.80;;;;;;4966807;28;20466;-87
2022/08/06 08:46:46;;;;;;;;;;;37.30;48.40;;;;;;4965944;28;19917;-87
2022/08/06 08:49:27;;;;;;;;;;;37.10;48.40;;;;;;4966658;28;19933;-87
2022/08/06 08:51:53;;;;;;;;;;;36.80;48.40;;;;;;4966290;28;19921;-87
2022/08/06 08:54:21;;;;;;;;;;;37.00;47.20;;;;;;4968015;28;20375;-87
2022/08/06 08:56:47;;;;;;;;;;;38.10;47.30;;;;;;4985096;28;19918;-87
2022/08/06 08:59:14;;;;;;;;;;;38.10;46.60;;;;;;4985568;28;20432;-87
2022/08/06 09:01:40;;;;;;;;;;;37.90;47.30;;;;;;4985525;28;19916;-87
2022/08/06 09:04:07;;;;;;;;;;;37.50;46.70;;;;;;4985633;28;19909;-87
2022/08/06 09:06:33;;;;;;;;;;;37.70;46.90;;;;;;4985509;28;19909;-87
2022/08/06 09:09:03;;;;;;;;;;;38.50;47.00;;;;;;4985951;28;19936;-87
2022/08/06 09:11:31;;;;;;;;;;;38.80;46.00;;;;;;4973547;28;19914;-86
2022/08/06 09:14:00;;;;;;;;;;;39.10;45.80;;;;;;4985301;28;20886;-87
2022/08/06 09:16:25;;;;;;;;;;;38.50;46.50;;;;;;4984891;28;19955;-87
2022/08/06 09:18:51;;;;;;;;;;;40.00;45.70;;;;;;4985320;28;19909;-87
2022/08/06 09:21:16;;;;;;;;;;;40.70;44.80;;;;;;4985613;28;19910;-86
2022/08/06 09:23:42;;;;;;;;;;;39.60;45.30;;;;;;4968211;28;20363;-87
2022/08/06 09:26:07;;;;;;;;;;;39.20;44.60;;;;;;4984846;28;19910;-87
2022/08/06 09:28:34;;;;;;;;;;;38.00;45.90;;;;;;4985095;28;19975;-87
2022/08/06 09:31:28;;;;;;;;;;;37.20;46.80;;;;;;4985725;28;19975;-87
2022/08/06 09:34:04;;;;;;;;;;;38.20;46.30;;;;;;4959090;28;19928;-86
2022/08/06 09:36:42;;;;;;;;;;;38.10;46.30;;;;;;4985013;28;19910;-87
2022/08/06 09:39:08;;;;;;;;;;;38.00;45.70;;;;;;4984634;28;19916;-87
2022/08/06 09:41:34;;;;;;;;;;;38.60;45.30;;;;;;4985291;28;20024;-87
2022/08/06 09:44:09;;;;;;;;;;;39.10;44.80;;;;;;4985105;28;19932;-87
2022/08/06 09:46:53;;;;;;;;;;;40.50;44.20;;;;;;4971879;28;19940;-86
2022/08/06 09:49:19;;;;;;;;;;;40.70;43.80;;;;;;4985284;28;20324;-87
2022/08/06 09:51:45;;;;;;;;;;;39.10;44.10;;;;;;4985384;28;19910;-86
2022/08/06 09:54:18;;;;;;;;;;;40.70;45.10;;;;;;4984734;28;20016;-87
2022/08/06 09:56:43;;;;;;;;;;;40.30;43.10;;;;;;4984668;28;20642;-86
2022/08/06 09:59:10;;;;;;;;;;;40.70;43.90;;;;;;4985511;28;19909;-87
2022/08/06 10:01:43;;;;;;;;;;;41.40;44.20;;;;;;4985221;28;20000;-87
2022/08/06 10:04:13;;;;;;;;;;;42.20;43.40;;;;;;4985181;28;19961;-87
2022/08/06 10:06:55;;;;;;;;;;;41.30;43.50;;;;;;4967228;28;19910;-88
2022/08/06 10:09:21;;;;;;;;;;;41.20;43.20;;;;;;4984461;28;19913;-87
2022/08/06 10:11:46;;;;;;;;;;;38.80;43.40;;;;;;4973067;28;19914;-88
2022/08/06 10:14:22;;;;;;;;;;;39.20;44.40;;;;;;4985083;28;20066;-87
2022/08/06 10:17:06;;;;;;;;;;;41.00;44.50;;;;;;4984535;28;19916;-87
2022/08/06 10:19:32;;;;;;;;;;;40.40;42.60;;;;;;4984726;28;19983;-86
2022/08/06 10:22:08;;;;;;;;;;;38.40;43.90;;;;;;4982589;28;19913;-87
2022/08/06 10:24:36;;;;;;;;;;;39.60;44.40;;;;;;4965030;28;19910;-86
2022/08/06 10:27:06;;;;;;;;;;;40.30;44.70;;;;;;4965547;28;19917;-87
2022/08/06 10:29:32;;;;;;;;;;;39.60;43.70;;;;;;4969087;28;19952;-87
2022/08/06 10:31:58;;;;;;;;;;;38.30;44.10;;;;;;4968733;28;19918;-87
2022/08/06 10:34:25;;;;;;;;;;;38.00;44.80;;;;;;4968844;28;19922;-87
2022/08/06 10:36:56;;;;;;;;;;;36.60;45.20;;;;;;4951069;28;19956;-87
2022/08/06 10:39:25;;;;;;;;;;;36.10;47.40;;;;;;4968774;28;20442;-87
2022/08/06 10:41:51;;;;;;;;;;;35.00;47.20;;;;;;4968989;28;19960;-87
2022/08/06 10:44:16;;;;;;;;;;;34.60;50.10;;;;;;4969049;28;20351;-87
2022/08/06 10:46:42;;;;;;;;;;;34.50;48.80;;;;;;4969898;28;19910;-86
2022/08/06 10:49:08;;;;;;;;;;;34.60;48.90;;;;;;4988404;28;19964;-87
2022/08/06 10:51:36;;;;;;;;;;;34.60;49.00;;;;;;4987917;28;19910;-87
2022/08/06 10:54:01;;;;;;;;;;;34.50;49.60;;;;;;4988050;28;20383;-86
2022/08/06 10:56:28;;;;;;;;;;;33.90;51.30;;;;;;4987779;28;19969;-87
2022/08/06 10:58:54;;;;;;;;;;;33.90;49.90;;;;;;4988059;28;20009;-86
2022/08/06 11:01:37;;;;;;;;;;;33.80;50.50;;;;;;4987761;28;19996;-87
2022/08/06 11:04:15;;;;;;;;;;;33.50;49.90;;;;;;4987424;28;20008;-86
2022/08/06 11:06:56;;;;;;;;;;;32.70;50.90;;;;;;4987019;28;19909;-86
2022/08/06 11:09:45;;;;;;;;;;;33.40;51.60;;;;;;4987707;28;20390;-86
2022/08/06 11:12:26;;;;;;;;;;;33.40;50.60;;;;;;4975230;28;19910;-86
2022/08/06 11:14:52;;;;;;;;;;;33.40;51.50;;;;;;4987308;28;19917;-87
2022/08/06 11:17:17;;;;;;;;;;;33.50;51.50;;;;;;4987779;28;20437;-86
2022/08/06 11:19:44;;;;;;;;;;;33.40;51.00;;;;;;4987433;28;20324;-86
2022/08/06 11:22:29;;;;;;;;;;;32.80;51.40;;;;;;4987208;28;19910;-86
2022/08/06 11:24:54;;;;;;;;;;;32.80;51.60;;;;;;4987858;28;19916;-86
2022/08/06 11:27:38;;;;;;;;;;;32.80;51.60;;;;;;4987625;28;19905;-86
2022/08/06 11:30:10;;;;;;;;;;;32.70;51.80;;;;;;4987787;28;19910;-87
2022/08/06 11:32:54;;;;;;;;;;;33.30;51.10;;;;;;4987551;28;19909;-86
2022/08/06 11:35:35;;;;;;;;;;;33.00;50.80;;;;;;4987149;28;20029;-87
2022/08/06 11:38:00;;;;;;;;;;;32.40;51.60;;;;;;4963739;28;20004;-86
2022/08/06 11:40:26;;;;;;;;;;;33.00;53.70;;;;;;4987437;28;19993;-87
2022/08/06 11:42:52;;;;;;;;;;;33.00;53.00;;;;;;4987518;28;19964;-86
2022/08/06 11:45:17;;;;;;;;;;;33.10;52.50;;;;;;4980018;28;19910;-86
2022/08/06 11:48:01;;;;;;;;;;;33.10;52.50;;;;;;4981088;28;20161;-86
2022/08/06 11:50:27;;;;;;;;;;;32.90;52.50;;;;;;4986724;28;19913;-87
2022/08/06 11:52:53;;;;;;;;;;;32.90;52.50;;;;;;4986760;28;19914;-87
2022/08/06 11:55:18;;;;;;;;;;;32.60;51.50;;;;;;4986995;28;19996;-86
2022/08/06 11:57:44;;;;;;;;;;;32.70;53.10;;;;;;4987427;28;20397;-86
2022/08/06 12:00:14;;;;;;;;;;;32.90;52.80;;;;;;4969501;28;20448;-86
2022/08/06 12:02:42;;;;;;;;;;;32.10;52.30;;;;;;4986902;28;20456;-87
2022/08/06 12:05:13;;;;;;;;;;;32.50;52.50;;;;;;4986552;28;19910;-86
2022/08/06 12:07:39;;;;;;;;;;;33.00;51.90;;;;;;4986521;28;19909;-87
2022/08/06 12:10:09;;;;;;;;;;;32.60;52.50;;;;;;4986477;28;19910;-86
2022/08/06 12:12:45;;;;;;;;;;;32.20;51.50;;;;;;4975585;28;19988;-87
2022/08/06 12:15:21;;;;;;;;;;;32.00;51.70;;;;;;4986401;28;19918;-86
2022/08/06 12:17:53;;;;;;;;;;;32.00;52.50;;;;;;4986606;28;19905;-86
2022/08/06 12:20:31;;;;;;;;;;;32.00;51.60;;;;;;4986142;28;19909;-87
2022/08/06 12:23:00;;;;;;;;;;;32.40;51.90;;;;;;4986225;28;19920;-86
2022/08/06 12:25:32;;;;;;;;;;;32.90;52.40;;;;;;4986489;28;19909;-86
2022/08/06 12:27:58;;;;;;;;;;;32.90;51.10;;;;;;4986130;28;19910;-86
2022/08/06 12:30:24;;;;;;;;;;;32.90;51.20;;;;;;4968211;28;19925;-87
2022/08/06 12:32:58;;;;;;;;;;;33.10;51.00;;;;;;4985956;28;19916;-86
2022/08/06 12:35:23;;;;;;;;;;;33.10;50.70;;;;;;4968517;28;19917;-87
2022/08/06 12:37:49;;;;;;;;;;;32.90;50.80;;;;;;4968561;28;19909;-87
2022/08/06 12:40:27;;;;;;;;;;;32.80;50.80;;;;;;4985834;28;19909;-87
2022/08/06 12:42:53;;;;;;;;;;;32.40;51.30;;;;;;4985838;28;20521;-86
2022/08/06 12:45:23;;;;;;;;;;;32.40;51.60;;;;;;4978439;28;19914;-85
2022/08/06 12:48:00;;;;;;;;;;;32.50;51.70;;;;;;4980211;28;19914;-86
2022/08/06 12:50:26;;;;;;;;;;;32.50;51.10;;;;;;4967500;28;19910;-86
2022/08/06 12:53:13;;;;;;;;;;;32.30;51.60;;;;;;4985430;28;19917;-86
2022/08/06 12:55:54;;;;;;;;;;;32.40;51.50;;;;;;4967837;28;19953;-87
2022/08/06 12:58:23;;;;;;;;;;;32.50;51.00;;;;;;4985083;28;19980;-86
2022/08/06 13:00:58;;;;;;;;;;;32.50;51.60;;;;;;4985482;28;20315;-86
2022/08/06 13:03:25;;;;;;;;;;;32.60;51.50;;;;;;4984894;28;19917;-87
2022/08/06 13:05:52;;;;;;;;;;;32.80;51.10;;;;;;4985386;28;19910;-86
2022/08/06 13:08:19;;;;;;;;;;;32.30;51.90;;;;;;4985334;28;19932;-86
2022/08/06 13:10:51;;;;;;;;;;;32.70;51.20;;;;;;4980064;28;19910;-87
2022/08/06 13:13:17;;;;;;;;;;;33.00;51.60;;;;;;4979778;28;19918;-86
2022/08/06 13:15:58;;;;;;;;;;;33.10;51.90;;;;;;4985070;28;20290;-86
2022/08/06 13:18:24;;;;;;;;;;;33.60;51.60;;;;;;4966798;28;20378;-87
2022/08/06 13:20:51;;;;;;;;;;;33.60;51.40;;;;;;4985527;28;19914;-86
2022/08/06 13:23:27;;;;;;;;;;;33.60;52.30;;;;;;4985480;28;19977;-87
2022/08/06 13:25:52;;;;;;;;;;;33.30;50.20;;;;;;4967921;28;20279;-86
2022/08/06 13:28:19;;;;;;;;;;;33.40;50.40;;;;;;4985130;28;19916;-86
2022/08/06 13:30:45;;;;;;;;;;;33.00;50.60;;;;;;4971151;28;19909;-86
2022/08/06 13:33:13;;;;;;;;;;;32.70;50.40;;;;;;4985083;28;20382;-86
2022/08/06 13:35:38;;;;;;;;;;;32.40;51.50;;;;;;4984974;28;20393;-86
2022/08/06 13:38:04;;;;;;;;;;;32.60;51.00;;;;;;4984987;28;19910;-87
2022/08/06 13:40:38;;;;;;;;;;;31.90;51.20;;;;;;4985453;28;19918;-89
2022/08/06 13:43:04;;;;;;;;;;;31.40;52.20;;;;;;4985338;28;20276;-87
2022/08/06 13:45:30;;;;;;;;;;;31.80;52.20;;;;;;4976741;28;19917;-87
2022/08/06 13:48:01;;;;;;;;;;;31.70;51.50;;;;;;4963598;28;19906;-87
2022/08/06 13:50:27;;;;;;;;;;;31.50;52.10;;;;;;4985770;28;19941;-87
2022/08/06 13:52:53;;;;;;;;;;;31.30;52.00;;;;;;4985000;28;20683;-86
2022/08/06 13:55:22;;;;;;;;;;;31.40;51.60;;;;;;4985002;28;19926;-88
2022/08/06 13:57:47;;;;;;;;;;;31.30;51.70;;;;;;4967220;28;20294;-86
2022/08/06 14:00:13;;;;;;;;;;;31.60;51.90;;;;;;4984392;28;19910;-86
2022/08/06 14:02:39;;;;;;;;;;;31.80;51.60;;;;;;4988408;28;19914;-86
2022/08/06 14:05:05;;;;;;;;;;;31.90;51.60;;;;;;4989137;28;19917;-87
2022/08/06 14:07:30;;;;;;;;;;;31.80;51.10;;;;;;4988724;28;19905;-86
2022/08/06 14:09:56;;;;;;;;;;;31.60;51.50;;;;;;4988736;28;19924;-88
2022/08/06 14:12:22;;;;;;;;;;;31.90;51.70;;;;;;4976773;28;20028;-87
2022/08/06 14:14:47;;;;;;;;;;;31.80;50.90;;;;;;4970664;28;19918;-86
2022/08/06 14:17:13;;;;;;;;;;;31.70;50.40;;;;;;4988218;28;19916;-86
2022/08/06 14:19:38;;;;;;;;;;;31.40;50.90;;;;;;4988888;28;19920;-87
2022/08/06 14:22:04;;;;;;;;;;;31.40;51.50;;;;;;4988300;28;19936;-86
2022/08/06 14:24:29;;;;;;;;;;;31.50;51.70;;;;;;4988411;28;19992;-86
2022/08/06 14:26:56;;;;;;;;;;;31.60;50.90;;;;;;4988145;28;19917;-87
2022/08/06 14:29:21;;;;;;;;;;;31.70;51.40;;;;;;4988248;28;19910;-87